createdAt,value
2023-05-23T00:00:43.857Z,14.75
2023-05-23T00:04:02.849Z,16.77
2023-05-23T00:07:06.810Z,17.10
2023-05-23T00:10:22.898Z,14.57
2023-05-23T00:13:38.861Z,18.47
2023-05-23T00:17:08.993Z,14.87
2023-05-23T00:20:12.940Z,19.60
2023-05-23T00:23:29.953Z,20.75
2023-05-23T00:26:33.952Z,20.80
2023-05-23T00:29:49.906Z,19.90
2023-05-23T00:33:10.939Z,20.77
2023-05-23T00:36:30.024Z,21.40
2023-05-23T00:39:45.893Z,17.33
2023-05-23T00:43:04.950Z,17.87
2023-05-23T00:46:08.972Z,17.10
2023-05-23T00:49:41.982Z,17.77
2023-05-23T00:52:45.999Z,16.13
2023-05-23T00:56:02.135Z,15.30
2023-05-23T00:59:05.974Z,17.37
2023-05-23T01:02:34.236Z,13.75
2023-05-23T01:05:54.027Z,14.33
2023-05-23T01:09:22.995Z,13.37
2023-05-23T01:12:41.218Z,10.83
2023-05-23T01:16:09.173Z,10.03
2023-05-23T01:19:25.128Z,11.03
2023-05-23T01:23:02.234Z,9.45
2023-05-23T01:26:30.226Z,12.03
2023-05-23T01:30:03.245Z,8.37
2023-05-23T01:33:19.219Z,8.83
2023-05-23T01:36:38.072Z,7.13
2023-05-23T01:39:43.231Z,8.50
2023-05-23T01:42:59.257Z,7.37
2023-05-23T01:46:16.342Z,6.30
2023-05-23T01:49:47.214Z,6.40
2023-05-23T01:53:15.198Z,7.67
2023-05-23T01:56:46.213Z,9.33
2023-05-23T02:00:14.196Z,6.40
2023-05-23T02:03:46.306Z,11.80
2023-05-23T02:06:50.478Z,8.70
2023-05-23T02:10:06.272Z,10.13
2023-05-23T02:13:10.258Z,10.33
2023-05-23T02:16:26.367Z,9.83
2023-05-23T02:19:46.348Z,14.30
2023-05-23T02:23:05.357Z,9.33
2023-05-23T02:26:09.311Z,11.20
2023-05-23T02:29:25.339Z,8.93
2023-05-23T02:32:41.605Z,9.53
2023-05-23T02:36:11.382Z,9.70
2023-05-23T02:39:27.403Z,9.90
2023-05-23T02:42:46.306Z,12.37
2023-05-23T02:46:02.468Z,6.87
2023-05-23T02:49:21.433Z,11.47
2023-05-23T02:52:50.655Z,11.70
2023-05-23T02:56:06.448Z,8.03
2023-05-23T02:59:22.356Z,12.30
2023-05-23T03:02:41.453Z,10.50
2023-05-23T03:05:45.467Z,12.15
2023-05-23T03:09:14.506Z,5.80
2023-05-23T03:12:30.461Z,9.50
2023-05-23T03:15:49.704Z,9.03
2023-05-23T03:19:05.563Z,10.70
2023-05-23T03:22:24.432Z,17.20
2023-05-23T03:25:41.810Z,17.20
2023-05-23T03:28:57.433Z,9.23
2023-05-23T03:32:01.648Z,8.87
2023-05-23T03:35:17.701Z,12.85
2023-05-23T03:38:21.567Z,7.15
2023-05-23T03:41:53.649Z,7.77
2023-05-23T03:45:21.633Z,8.55
2023-05-23T03:48:37.621Z,4.85
2023-05-23T03:51:55.585Z,5.67
2023-05-23T03:55:11.537Z,8.97
2023-05-23T03:58:43.634Z,7.17
2023-05-23T04:02:02.725Z,9.73
2023-05-23T04:05:19.609Z,10.35
2023-05-23T04:08:35.682Z,12.90
2023-05-23T04:11:51.675Z,10.37
2023-05-23T04:15:20.602Z,15.70
2023-05-23T04:18:48.721Z,10.57
2023-05-23T04:22:04.723Z,9.50
2023-05-23T04:25:32.646Z,9.00
2023-05-23T04:29:00.906Z,8.70
2023-05-23T04:32:21.929Z,12.10
2023-05-23T04:35:37.779Z,10.77
2023-05-23T04:38:56.666Z,7.15
2023-05-23T04:42:25.007Z,8.95
2023-05-23T04:45:40.940Z,9.80
2023-05-23T04:49:09.745Z,7.33
2023-05-23T04:52:37.824Z,7.95
2023-05-23T04:55:41.920Z,5.73
2023-05-23T04:59:00.743Z,9.35
2023-05-23T05:02:28.753Z,8.40
2023-05-23T05:06:03.724Z,7.20
2023-05-23T05:09:19.867Z,7.45
2023-05-23T05:12:50.770Z,8.30
2023-05-23T05:16:09.887Z,6.55
2023-05-23T05:19:28.911Z,5.60
2023-05-23T05:22:45.807Z,6.40
2023-05-23T05:26:04.905Z,7.20
2023-05-23T05:29:20.791Z,7.10
2023-05-23T05:32:37.918Z,11.00
2023-05-23T05:35:53.819Z,8.23
2023-05-23T05:39:14.024Z,7.70
2023-05-23T05:42:29.929Z,6.95
2023-05-23T05:45:45.832Z,8.65
2023-05-23T05:49:02.083Z,8.30
2023-05-23T05:52:19.053Z,6.17
2023-05-23T05:55:50.915Z,12.85
2023-05-23T05:59:09.855Z,9.13
2023-05-23T06:02:26.130Z,6.93
2023-05-23T06:05:44.976Z,8.93
2023-05-23T06:08:48.993Z,6.30
2023-05-23T06:12:17.946Z,7.05
2023-05-23T06:15:34.039Z,7.35
2023-05-23T06:18:56.098Z,4.90
2023-05-23T06:22:11.993Z,6.95
2023-05-23T06:25:30.995Z,7.03
2023-05-23T06:28:48.181Z,5.70
2023-05-23T06:32:07.200Z,11.70
2023-05-23T06:35:11.115Z,4.60
2023-05-23T06:38:27.079Z,6.83
2023-05-23T06:41:31.045Z,9.00
2023-05-23T06:45:03.178Z,9.80
2023-05-23T06:48:07.183Z,4.53
2023-05-23T06:51:24.211Z,12.90
2023-05-23T06:54:40.196Z,11.20
2023-05-23T06:57:59.222Z,10.50
2023-05-23T07:01:31.138Z,10.15
2023-05-23T07:04:50.161Z,8.13
2023-05-23T07:08:07.182Z,10.60
2023-05-23T07:11:24.145Z,7.63
2023-05-23T07:14:43.153Z,6.35
2023-05-23T07:18:13.160Z,5.15
2023-05-23T07:21:30.151Z,7.63
2023-05-23T07:24:49.176Z,14.10
2023-05-23T07:28:17.302Z,7.30
2023-05-23T07:31:33.368Z,7.10
2023-05-23T07:35:02.209Z,7.20
2023-05-23T07:38:21.216Z,9.90
2023-05-23T07:41:37.318Z,7.55
2023-05-23T07:44:57.286Z,10.35
2023-05-23T07:48:13.315Z,9.47
2023-05-23T07:51:45.306Z,12.43
2023-05-23T07:55:13.324Z,8.30
2023-05-23T07:58:30.313Z,5.27
2023-05-23T08:01:58.336Z,9.33
2023-05-23T08:05:14.344Z,9.20
2023-05-23T08:08:46.313Z,9.90
2023-05-23T08:12:05.303Z,10.20
2023-05-23T08:15:21.366Z,13.97
2023-05-23T08:18:43.477Z,12.80
2023-05-23T08:22:11.448Z,14.93
2023-05-23T08:25:44.357Z,7.83
2023-05-23T08:29:00.388Z,10.10
2023-05-23T08:32:19.603Z,8.03
2023-05-23T08:35:48.613Z,8.83
2023-05-23T08:39:19.485Z,11.90
2023-05-23T08:42:51.546Z,7.90
2023-05-23T08:46:10.514Z,11.70
2023-05-23T08:49:38.572Z,6.90
2023-05-23T08:53:10.678Z,7.83
2023-05-23T08:56:38.520Z,4.97
2023-05-23T09:00:11.448Z,7.25
2023-05-23T09:03:39.497Z,7.30
2023-05-23T09:06:56.361Z,8.57
2023-05-23T09:10:24.557Z,12.00
2023-05-23T09:13:41.593Z,9.77
2023-05-23T09:17:10.670Z,7.83
2023-05-23T09:20:39.755Z,8.33
2023-05-23T09:24:07.582Z,10.15
2023-05-23T09:27:26.598Z,8.73
2023-05-23T09:30:42.707Z,7.20
2023-05-23T09:34:14.714Z,8.37
2023-05-23T09:37:30.568Z,6.70
2023-05-23T09:40:49.630Z,8.70
2023-05-23T09:43:53.667Z,8.07
2023-05-23T09:47:10.799Z,6.35
2023-05-23T09:50:30.735Z,10.13
2023-05-23T09:54:01.758Z,8.37
2023-05-23T09:57:20.617Z,12.40
2023-05-23T10:00:51.870Z,11.83
2023-05-23T10:04:25.826Z,5.65
2023-05-23T10:07:42.762Z,11.77
2023-05-23T10:11:22.791Z,7.60
2023-05-23T10:14:38.801Z,10.03
2023-05-23T10:18:11.695Z,7.83
2023-05-23T10:21:27.765Z,9.93
2023-05-23T10:24:59.765Z,6.53
2023-05-23T10:28:15.785Z,7.85
2023-05-23T10:31:46.915Z,9.33
2023-05-23T10:35:03.851Z,10.47
2023-05-23T10:38:37.763Z,10.57
2023-05-23T10:41:55.880Z,8.17
2023-05-23T10:45:41.096Z,13.90
2023-05-23T10:48:59.791Z,5.97
2023-05-23T10:52:18.969Z,6.53
2023-05-23T10:55:39.814Z,11.60
2023-05-23T10:59:15.833Z,7.63
2023-05-23T11:02:32.051Z,9.43
2023-05-23T11:05:52.955Z,7.10
2023-05-23T11:08:56.909Z,6.07
2023-05-23T11:12:27.899Z,3.75
2023-05-23T11:15:48.299Z,6.93
2023-05-23T11:19:06.999Z,6.20
2023-05-23T11:22:22.986Z,4.60
2023-05-23T11:25:58.975Z,8.87
2023-05-23T11:29:13.977Z,6.67
2023-05-23T11:32:44.986Z,5.33
2023-05-23T11:36:01.072Z,6.93
2023-05-23T11:39:31.992Z,5.97
2023-05-23T11:42:35.982Z,8.80
2023-05-23T11:46:07.056Z,11.70
2023-05-23T11:49:25.113Z,7.40
2023-05-23T11:52:59.135Z,13.23
2023-05-23T11:56:18.097Z,11.87
2023-05-23T11:59:37.045Z,6.13
2023-05-23T12:02:55.196Z,7.80
2023-05-23T12:06:25.251Z,6.97
2023-05-23T12:09:41.073Z,7.07
2023-05-23T12:13:12.183Z,8.80
2023-05-23T12:16:28.077Z,5.43
2023-05-23T12:19:59.117Z,4.47
2023-05-23T12:23:19.143Z,7.33
2023-05-23T12:26:51.180Z,6.80
2023-05-23T12:29:55.177Z,6.57
2023-05-23T12:33:23.232Z,5.83
2023-05-23T12:36:47.937Z,4.90
2023-05-23T12:40:11.214Z,5.63
2023-05-23T12:43:15.230Z,8.30
2023-05-23T12:46:31.259Z,5.87
2023-05-23T12:49:35.234Z,5.53
2023-05-23T12:52:54.319Z,5.80
2023-05-23T12:56:11.371Z,7.37
2023-05-23T12:59:30.049Z,9.00
2023-05-23T13:02:34.396Z,8.33
2023-05-23T13:05:50.345Z,11.93
2023-05-23T13:08:54.247Z,5.83
2023-05-23T13:12:29.391Z,4.83
2023-05-23T13:15:33.378Z,7.47
2023-05-23T13:18:52.471Z,4.70
2023-05-23T13:21:56.340Z,4.53
2023-05-23T13:25:12.477Z,4.10
2023-05-23T13:28:29.420Z,8.43
2023-05-23T13:31:45.353Z,9.03
2023-05-23T13:34:49.537Z,7.25
2023-05-23T13:38:08.341Z,7.15
2023-05-23T13:41:12.422Z,1.67
2023-05-23T13:44:44.389Z,5.97
2023-05-23T13:47:48.557Z,7.33
2023-05-23T13:51:19.487Z,8.30
2023-05-23T13:54:23.409Z,5.93
2023-05-23T13:57:40.492Z,5.77
2023-05-23T14:00:57.703Z,5.60
2023-05-23T14:04:14.458Z,8.93
2023-05-23T14:07:30.450Z,6.10
2023-05-23T14:10:49.526Z,6.07
2023-05-23T14:14:05.623Z,8.97
2023-05-23T14:17:34.641Z,6.23
2023-05-23T14:20:50.491Z,5.00
2023-05-23T14:24:07.523Z,4.17
2023-05-23T14:27:11.651Z,6.63
2023-05-23T14:30:39.586Z,4.00
2023-05-23T14:33:56.518Z,3.93
2023-05-23T14:37:12.488Z,3.05
2023-05-23T14:40:16.630Z,7.43
2023-05-23T14:43:47.681Z,10.33
2023-05-23T14:46:51.614Z,5.13
2023-05-23T14:50:20.559Z,8.23
2023-05-23T14:53:36.551Z,5.03
2023-05-23T14:56:55.578Z,6.67
2023-05-23T15:00:14.610Z,7.60
2023-05-23T15:03:31.770Z,4.37
2023-05-23T15:07:01.708Z,9.07
2023-05-23T15:10:17.901Z,4.77
2023-05-23T15:13:21.700Z,4.40
2023-05-23T15:16:37.765Z,9.13
2023-05-23T15:19:41.735Z,6.03
2023-05-23T15:23:16.782Z,5.33
2023-05-23T15:26:20.727Z,4.00
2023-05-23T15:29:36.682Z,7.37
2023-05-23T15:32:40.789Z,5.67
2023-05-23T15:35:57.675Z,5.00
2023-05-23T15:39:20.937Z,3.07
2023-05-23T15:42:39.725Z,4.80
2023-05-23T15:45:43.923Z,5.93
2023-05-23T15:49:07.493Z,5.97
2023-05-23T15:52:04.794Z,5.37
2023-05-23T15:55:35.740Z,6.50
2023-05-23T15:58:39.886Z,7.47
2023-05-23T16:01:58.797Z,4.13
2023-05-23T16:05:15.832Z,7.07
2023-05-23T16:08:31.796Z,3.40
2023-05-23T16:12:03.970Z,6.13
2023-05-23T16:15:07.852Z,5.33
2023-05-23T16:18:26.894Z,4.97
2023-05-23T16:21:30.972Z,5.57
2023-05-23T16:24:46.951Z,10.97
2023-05-23T16:28:05.934Z,7.33
2023-05-23T16:31:38.066Z,9.20
2023-05-23T16:34:54.742Z,6.47
2023-05-23T16:38:12.971Z,5.33
2023-05-23T16:41:16.866Z,5.87
2023-05-23T16:44:47.113Z,8.53
2023-05-23T16:47:50.934Z,6.83
2023-05-23T16:51:21.912Z,5.23
2023-05-23T16:54:26.210Z,7.20
2023-05-23T16:57:44.960Z,5.57
2023-05-23T17:01:02.006Z,5.13
2023-05-23T17:04:20.969Z,8.60
2023-05-23T17:07:25.088Z,5.37
2023-05-23T17:10:55.992Z,6.27
2023-05-23T17:14:00.073Z,6.10
2023-05-23T17:17:32.038Z,4.17
2023-05-23T17:20:35.999Z,5.20
2023-05-23T17:23:56.066Z,4.30
2023-05-23T17:27:00.331Z,8.17
2023-05-23T17:30:29.713Z,5.97
2023-05-23T17:33:50.164Z,4.57
2023-05-23T17:37:09.142Z,2.93
2023-05-23T17:40:13.136Z,3.50
2023-05-23T17:43:32.136Z,5.70
2023-05-23T17:46:36.247Z,7.77
2023-05-23T17:50:08.132Z,8.05
2023-05-23T17:53:12.169Z,7.90
2023-05-23T17:56:28.048Z,6.40
2023-05-23T17:59:32.243Z,2.20
2023-05-23T18:02:51.225Z,4.70
2023-05-23T18:06:20.488Z,2.77
2023-05-23T18:09:24.245Z,4.70
2023-05-23T18:12:43.194Z,6.50
2023-05-23T18:15:47.212Z,8.37
2023-05-23T18:19:06.318Z,7.93
2023-05-23T18:22:23.109Z,6.73
2023-05-23T18:25:39.314Z,5.97
2023-05-23T18:28:43.322Z,9.70
2023-05-23T18:32:02.196Z,6.00
2023-05-23T18:35:06.355Z,8.83
2023-05-23T18:38:41.271Z,7.60
2023-05-23T18:41:57.239Z,6.87
2023-05-23T18:45:16.362Z,4.10
2023-05-23T18:48:20.257Z,5.73
2023-05-23T18:51:36.329Z,5.27
2023-05-23T18:54:56.586Z,6.73
2023-05-23T18:58:15.302Z,9.77
2023-05-23T19:01:19.402Z,6.93
2023-05-23T19:04:41.421Z,5.23
2023-05-23T19:07:43.394Z,6.35
2023-05-23T19:11:12.641Z,8.30
2023-05-23T19:14:17.006Z,12.95
2023-05-23T19:17:36.380Z,7.77
2023-05-23T19:20:40.691Z,9.97
2023-05-23T19:23:56.282Z,7.17
2023-05-23T19:27:16.468Z,4.50
2023-05-23T19:30:33.426Z,6.90
2023-05-23T19:33:37.485Z,7.45
2023-05-23T19:36:53.507Z,8.10
2023-05-23T19:39:57.504Z,5.83
2023-05-23T19:43:29.477Z,8.40
2023-05-23T19:46:33.550Z,6.70
2023-05-23T19:49:53.110Z,8.60
2023-05-23T19:53:09.549Z,6.85
2023-05-23T19:56:25.539Z,5.77
2023-05-23T19:59:42.972Z,8.50
2023-05-23T20:03:05.551Z,13.00
2023-05-23T20:06:36.594Z,6.87
2023-05-23T20:09:40.538Z,4.30
2023-05-23T20:13:09.615Z,6.05
2023-05-23T20:16:26.658Z,5.75
2023-05-23T20:19:45.612Z,5.43
2023-05-23T20:22:49.669Z,7.63
2023-05-23T20:26:09.676Z,6.77
2023-05-23T20:29:12.595Z,6.83
2023-05-23T20:32:46.042Z,7.90
2023-05-23T20:35:55.693Z,7.93
2023-05-23T20:39:23.579Z,7.57
2023-05-23T20:42:28.200Z,5.33
2023-05-23T20:46:00.667Z,9.30
2023-05-23T20:49:20.908Z,6.25
2023-05-23T20:52:37.850Z,7.40
2023-05-23T20:55:42.078Z,7.50
2023-05-23T20:58:58.739Z,7.80
2023-05-23T21:02:02.722Z,10.83
2023-05-23T21:05:36.752Z,11.47
2023-05-23T21:08:45.719Z,11.00
2023-05-23T21:12:05.117Z,8.63
2023-05-23T21:15:11.975Z,8.33
2023-05-23T21:18:42.891Z,6.57
2023-05-23T21:22:02.738Z,9.13
2023-05-23T21:25:21.771Z,10.20
2023-05-23T21:28:37.762Z,7.33
2023-05-23T21:31:56.903Z,8.83
2023-05-23T21:35:00.922Z,10.00
2023-05-23T21:38:35.859Z,8.10
2023-05-23T21:41:39.813Z,10.20
2023-05-23T21:44:57.007Z,5.00
2023-05-23T21:48:02.005Z,10.30
2023-05-23T21:51:20.928Z,9.90
2023-05-23T21:54:37.831Z,7.50
2023-05-23T21:57:56.978Z,9.00
2023-05-23T22:01:00.851Z,8.07
2023-05-23T22:04:16.961Z,8.33
2023-05-23T22:07:20.876Z,9.60
2023-05-23T22:10:53.185Z,11.10
2023-05-23T22:13:57.041Z,6.10
2023-05-23T22:17:15.975Z,7.63
2023-05-23T22:20:32.027Z,8.45
2023-05-23T22:23:51.073Z,7.20
2023-05-23T22:27:09.008Z,9.30
2023-05-23T22:30:40.185Z,9.20
2023-05-23T22:33:44.040Z,11.43
2023-05-23T22:37:00.962Z,8.50
2023-05-23T22:40:05.125Z,6.75
2023-05-23T22:43:37.094Z,7.90
2023-05-23T22:46:41.042Z,9.40
2023-05-23T22:49:57.110Z,10.20
2023-05-23T22:53:01.036Z,12.30
2023-05-23T22:56:20.171Z,11.27
2023-05-23T22:59:37.090Z,8.40
2023-05-23T23:02:53.254Z,13.50
2023-05-23T23:05:57.364Z,6.80
2023-05-23T23:09:16.212Z,14.37
2023-05-23T23:12:20.158Z,12.93
2023-05-23T23:15:52.170Z,10.13
2023-05-23T23:18:56.184Z,8.20
2023-05-23T23:22:15.114Z,14.33
2023-05-23T23:25:31.195Z,11.30
2023-05-23T23:28:50.269Z,7.70
2023-05-23T23:32:10.311Z,13.83
2023-05-23T23:35:29.301Z,9.90
2023-05-23T23:38:33.167Z,8.27
2023-05-23T23:41:55.255Z,12.60
2023-05-23T23:44:59.229Z,12.75
2023-05-23T23:48:29.293Z,8.23
2023-05-23T23:51:33.295Z,9.70
2023-05-23T23:55:01.462Z,13.73
2023-05-23T23:58:05.319Z,13.10
